Etusivu
METAR-TAF:

METAR-TAF

Lentoasemat :

Litchfield Municipal Airport

Litchfield, Illinois, Yhdysvallat

Leveyspiiri: 39-09-44N, Pituuspiiri: 089-40-28W, korkeus merenpinnasta: 210 m

Tämänhetkinen sää

Tämä raportti tehtiin 26 minuuttia sitten, kello 13.55 UTC
Tuuli 9 kn etelästä/lounaasta
Lämpötila 17°C
Kosteus 94%
Ilmanpaine 1011 hPa
Näkyvyys: 16.1 km
Hajonneita pilviä 2100 ft:n korkeudessa

METAR: K3LF 271355Z AUTO 20009KT 10SM BKN021 17/16 A2984 RMK AO2 T01720158

Aika: 09:21 (14:21 UTC)


TAF: puuttuu

Säähavainnot ja -ennusteet yli 4000 lentoasemalta (METAR- ja TAF-raportit).

Käytössä olevat sääasemat on merkitty karttaan keltaisilla ja punaisilla pisteillä.

Aseta hiiri pisteen päälle nähdäksesi sääaseman nimen.

Klikkaa sitten nähdäksesi säähavainnot ja -ennusteet.

Kartan vaihtaminen: klikkaa mustalla rastilla varustettuja vihreitä pisteitä, niin voit zoomata sisään; viivalla varustettua vihreää pistettä, niin voit zoomata ulos tai vihreitä nuolia, niin pääset viereisille kartoille.


METAR-TAF: